Aérodrome :
LOGIN :

S'inscrire | Disclaimer

   EN    FR    IT 

 










Légende :    VFR   VFR Marginal   IFR   IFR Intensif   IFR Très Intensif
Visi : 
Plafond : 
>= 8 km
>= 3000ft
5 à 8 km
1000 à 3000 ft
1500m à 5 km
500 à 1000 ft
800 à 1500m
200 à 500 ft
< 800m
< 200 ft
Symboles :   Orages  Brouillard  Fortes neiges  Fortes précipitations  Vent > 20 kt
SIGMETs :   Divers  Orages  Givrage  Turbulence  Onde Orograph.  Cendres Volcan.






- Altitude de l'aérodrome : 1273 ft
- Code IATA : LJU


LJLJ - Ljubljana

DERNIER METAR :
  • 060230Z 30004KT CAVOK 02/M01 Q1026 NOSIG

METARs EXPIRÉS :
  • 060200Z 29004KT 240V310 CAVOK 02/M01 Q1026 NOSIG
  • 060130Z 28006KT 9999 FEW065 03/M02 Q1026 NOSIG
  • 060100Z 27004KT 220V300 9999 FEW065 03/M01 Q1026 NOSIG
  • 060030Z VRB02KT 9999 FEW065 03/M01 Q1026 NOSIG
  • 060000Z 28006KT 9999 FEW070 03/M01 Q1027 NOSIG

TAF TAF LJLJ
Valide du 06 à 00h jusqu'au 07 à 00h UTC


052300Z 0600/0624 30002KT CAVOK
BECMG 0610/0613 10010KT



MET'MAP, la Météo Aéronautique d'un coup d'oeil ! - Copyright ORBIFLY Décembre 2007 - Disclaimer

ORBIFLY MET'MAP TEAM :

Programmation & Développement : Alexandra Zaïnal
Sur une idée originale de : Baudouin d'Aumeries
Assistance à la programmation : Marc-Olivier Méhu
Soutien technique & logistique : Manuel Goepfert

Contact : metmap@orbifly.com




SOURCES & CREDITS :

   NOAA